Hovedside
METAR-TAF:

METAR-TAF

Lufthavner :

Šiauliai, Litauen

breddegrad: 55-53-38N, lengdegrad: 023-23-42E, høyde over havet: 135 m

Gjeldene værobservasjon

Denne rapporten ble laget for 1 time og 13 minutter siden, klokken 09:50 UTC
Vind 11 kt fra Sørvest, skiftende mellom Sør og Vest-sørvest
Temperatur 9°C
Luftfuktighet 43%
Trykk 1013 hPa
Sikt 10 km eller mer
Brutte skyer i en høyde av 4600 ft

METAR: EYSA 270950Z 22011KT 190V250 9999 BKN046 09/M03 Q1013 BLU NOSIG

Tid: 14:03 (11:03 UTC)

Varsel

Denne rapporten ble laget for 3 timer og 3 minutter siden, klokken 08:00 UTC
Varsel gyldig fra 27. klokken 09 UTC til 27. klokken 18 UTC
Vind 10 kt fra Vest-sørvest
Sikt: 9000 m
Spredte skyer i en høyde av 3000 ft
Midlertidig
fra 27. klokken 09 UTC til 27. klokken 15 UTC
Spredte skyer i en høyde av 2000 ft, Bygeskyer.

TAF: EYSA 270800Z 2709/2718 24010KT 9000 SCT030 TEMPO 2709/2715 SCT020CB

Værobservasjoner og værvarsel for over 4000 flyplasser (METAR- og TAF-rapporter).

Tilgjengelige stasjoner er representert av de røde og gule prikkene på kartet.

Hold musepekeren over prikken for å se navnet på stasjonen.

Klikk så for å se værobservasjoner og -varsler.

For å forandre kartet kan du klikke på den grønne knappen med svart kryss for å zoome inn, på den grønne knappen med strek for å zoome ut, eller på de grønne pilene for å se tilstøtende kart.


METAR-TAF: